sensor_id;sensor_type;location;lat;lon;timestamp;P1;durP1;ratioP1;P2;durP2;ratioP2
55288;SDS011;41154;45.394;5.734;2022-12-07T00:01:41;9.35;;;4.57;;
55288;SDS011;41154;45.394;5.734;2022-12-07T00:04:09;6.53;;;3.67;;
55288;SDS011;41154;45.394;5.734;2022-12-07T00:06:38;9.82;;;3.85;;
55288;SDS011;41154;45.394;5.734;2022-12-07T00:09:07;7.80;;;3.15;;
55288;SDS011;41154;45.394;5.734;2022-12-07T00:11:35;10.55;;;3.55;;
55288;SDS011;41154;45.394;5.734;2022-12-07T00:14:02;13.38;;;4.22;;
55288;SDS011;41154;45.394;5.734;2022-12-07T00:16:31;8.65;;;4.32;;
55288;SDS011;41154;45.394;5.734;2022-12-07T00:18:58;7.97;;;3.63;;
55288;SDS011;41154;45.394;5.734;2022-12-07T00:21:25;10.30;;;4.38;;
55288;SDS011;41154;45.394;5.734;2022-12-07T00:23:58;9.13;;;3.45;;
55288;SDS011;41154;45.394;5.734;2022-12-07T00:26:25;8.20;;;4.85;;
55288;SDS011;41154;45.394;5.734;2022-12-07T00:28:53;8.38;;;3.70;;
55288;SDS011;41154;45.394;5.734;2022-12-07T00:31:22;9.90;;;4.18;;
55288;SDS011;41154;45.394;5.734;2022-12-07T00:33:50;9.18;;;4.60;;
55288;SDS011;41154;45.394;5.734;2022-12-07T00:36:17;9.07;;;3.72;;
55288;SDS011;41154;45.394;5.734;2022-12-07T00:38:45;17.13;;;4.55;;
55288;SDS011;41154;45.394;5.734;2022-12-07T00:41:12;7.90;;;3.58;;
55288;SDS011;41154;45.394;5.734;2022-12-07T00:43:40;6.75;;;4.30;;
55288;SDS011;41154;45.394;5.734;2022-12-07T00:46:07;5.75;;;4.32;;
55288;SDS011;41154;45.394;5.734;2022-12-07T00:48:33;8.82;;;4.03;;
55288;SDS011;41154;45.394;5.734;2022-12-07T00:50:59;9.80;;;3.72;;
55288;SDS011;41154;45.394;5.734;2022-12-07T00:53:25;7.03;;;4.07;;
55288;SDS011;41154;45.394;5.734;2022-12-07T00:55:52;6.50;;;3.85;;
55288;SDS011;41154;45.394;5.734;2022-12-07T00:58:18;11.57;;;3.97;;
55288;SDS011;41154;45.394;5.734;2022-12-07T01:00:44;7.13;;;3.47;;
55288;SDS011;41154;45.394;5.734;2022-12-07T01:03:11;10.77;;;4.50;;
55288;SDS011;41154;45.394;5.734;2022-12-07T01:05:39;5.78;;;3.35;;
55288;SDS011;41154;45.394;5.734;2022-12-07T01:08:05;6.82;;;3.53;;
55288;SDS011;41154;45.394;5.734;2022-12-07T01:10:32;11.52;;;3.85;;
55288;SDS011;41154;45.394;5.734;2022-12-07T01:12:58;7.32;;;4.50;;
55288;SDS011;41154;45.394;5.734;2022-12-07T01:15:24;9.93;;;3.95;;
55288;SDS011;41154;45.394;5.734;2022-12-07T01:17:51;11.95;;;4.45;;
55288;SDS011;41154;45.394;5.734;2022-12-07T01:20:17;8.15;;;3.75;;
55288;SDS011;41154;45.394;5.734;2022-12-07T01:22:43;7.65;;;2.63;;
55288;SDS011;41154;45.394;5.734;2022-12-07T01:25:09;6.68;;;3.80;;
55288;SDS011;41154;45.394;5.734;2022-12-07T01:27:36;7.60;;;3.33;;
55288;SDS011;41154;45.394;5.734;2022-12-07T01:30:03;6.60;;;3.00;;
55288;SDS011;41154;45.394;5.734;2022-12-07T01:32:31;7.90;;;3.10;;
55288;SDS011;41154;45.394;5.734;2022-12-07T01:34:57;7.53;;;3.78;;
55288;SDS011;41154;45.394;5.734;2022-12-07T01:37:22;6.85;;;3.92;;
55288;SDS011;41154;45.394;5.734;2022-12-07T01:39:49;4.88;;;3.20;;
55288;SDS011;41154;45.394;5.734;2022-12-07T01:42:15;6.20;;;3.28;;
55288;SDS011;41154;45.394;5.734;2022-12-07T01:47:56;9.20;;;4.07;;
55288;SDS011;41154;45.394;5.734;2022-12-07T01:50:24;8.93;;;3.97;;
55288;SDS011;41154;45.394;5.734;2022-12-07T01:52:53;5.32;;;2.65;;
55288;SDS011;41154;45.394;5.734;2022-12-07T01:55:24;5.38;;;2.88;;
55288;SDS011;41154;45.394;5.734;2022-12-07T01:57:51;7.88;;;3.67;;
55288;SDS011;41154;45.394;5.734;2022-12-07T02:00:19;8.40;;;3.88;;
55288;SDS011;41154;45.394;5.734;2022-12-07T02:02:51;11.45;;;5.32;;
55288;SDS011;41154;45.394;5.734;2022-12-07T02:05:20;7.40;;;3.90;;
55288;SDS011;41154;45.394;5.734;2022-12-07T02:07:48;10.95;;;3.70;;
55288;SDS011;41154;45.394;5.734;2022-12-07T02:12:49;7.95;;;3.67;;
55288;SDS011;41154;45.394;5.734;2022-12-07T02:15:19;5.60;;;3.00;;
55288;SDS011;41154;45.394;5.734;2022-12-07T02:17:52;10.63;;;4.43;;
55288;SDS011;41154;45.394;5.734;2022-12-07T02:28:21;6.05;;;2.83;;
55288;SDS011;41154;45.394;5.734;2022-12-07T02:31:01;12.40;;;4.18;;
55288;SDS011;41154;45.394;5.734;2022-12-07T02:33:43;8.30;;;3.25;;
55288;SDS011;41154;45.394;5.734;2022-12-07T02:41:36;6.30;;;3.33;;
55288;SDS011;41154;45.394;5.734;2022-12-07T02:44:27;7.28;;;3.33;;
55288;SDS011;41154;45.394;5.734;2022-12-07T02:47:03;9.77;;;2.80;;
55288;SDS011;41154;45.394;5.734;2022-12-07T02:49:32;8.18;;;3.80;;
55288;SDS011;41154;45.394;5.734;2022-12-07T02:51:58;7.63;;;3.60;;
55288;SDS011;41154;45.394;5.734;2022-12-07T02:54:24;7.35;;;3.13;;
55288;SDS011;41154;45.394;5.734;2022-12-07T02:56:56;9.80;;;4.20;;
55288;SDS011;41154;45.394;5.734;2022-12-07T03:08:14;8.27;;;3.47;;
55288;SDS011;41154;45.394;5.734;2022-12-07T03:16:15;7.35;;;3.85;;
55288;SDS011;41154;45.394;5.734;2022-12-07T03:18:49;6.38;;;3.83;;
55288;SDS011;41154;45.394;5.734;2022-12-07T03:21:22;4.60;;;2.80;;
55288;SDS011;41154;45.394;5.734;2022-12-07T03:23:53;12.98;;;4.35;;
55288;SDS011;41154;45.394;5.734;2022-12-07T03:26:21;10.23;;;4.18;;
55288;SDS011;41154;45.394;5.734;2022-12-07T03:28:55;6.93;;;3.42;;
55288;SDS011;41154;45.394;5.734;2022-12-07T03:31:35;8.70;;;4.28;;
55288;SDS011;41154;45.394;5.734;2022-12-07T03:34:08;6.70;;;3.65;;
55288;SDS011;41154;45.394;5.734;2022-12-07T03:42:05;10.40;;;4.32;;
55288;SDS011;41154;45.394;5.734;2022-12-07T03:44:34;9.32;;;4.53;;
55288;SDS011;41154;45.394;5.734;2022-12-07T03:49:57;7.13;;;3.70;;
55288;SDS011;41154;45.394;5.734;2022-12-07T03:52:31;7.35;;;3.88;;
55288;SDS011;41154;45.394;5.734;2022-12-07T03:55:48;5.28;;;2.58;;
55288;SDS011;41154;45.394;5.734;2022-12-07T03:57:52;6.05;;;3.78;;
55288;SDS011;41154;45.394;5.734;2022-12-07T04:00:22;5.57;;;3.08;;
55288;SDS011;41154;45.394;5.734;2022-12-07T04:02:48;6.35;;;3.35;;
55288;SDS011;41154;45.394;5.734;2022-12-07T04:05:17;7.28;;;3.80;;
55288;SDS011;41154;45.394;5.734;2022-12-07T04:07:43;8.48;;;3.70;;
55288;SDS011;41154;45.394;5.734;2022-12-07T04:10:10;7.32;;;4.70;;
55288;SDS011;41154;45.394;5.734;2022-12-07T04:12:36;11.30;;;4.45;;
55288;SDS011;41154;45.394;5.734;2022-12-07T04:15:02;8.40;;;4.47;;
55288;SDS011;41154;45.394;5.734;2022-12-07T04:17:29;10.75;;;3.78;;
55288;SDS011;41154;45.394;5.734;2022-12-07T04:19:54;12.02;;;5.10;;
55288;SDS011;41154;45.394;5.734;2022-12-07T04:22:20;9.05;;;3.75;;
55288;SDS011;41154;45.394;5.734;2022-12-07T04:24:46;7.40;;;3.97;;
55288;SDS011;41154;45.394;5.734;2022-12-07T04:27:12;8.52;;;3.85;;
55288;SDS011;41154;45.394;5.734;2022-12-07T04:29:37;10.32;;;5.00;;
55288;SDS011;41154;45.394;5.734;2022-12-07T04:32:03;8.88;;;4.57;;
55288;SDS011;41154;45.394;5.734;2022-12-07T04:34:29;9.85;;;4.53;;
55288;SDS011;41154;45.394;5.734;2022-12-07T04:36:55;8.45;;;4.15;;
55288;SDS011;41154;45.394;5.734;2022-12-07T04:39:25;7.82;;;4.00;;
55288;SDS011;41154;45.394;5.734;2022-12-07T04:41:53;8.77;;;4.65;;
55288;SDS011;41154;45.394;5.734;2022-12-07T04:44:20;8.93;;;4.40;;
55288;SDS011;41154;45.394;5.734;2022-12-07T04:46:47;10.30;;;4.53;;
55288;SDS011;41154;45.394;5.734;2022-12-07T04:49:13;7.43;;;4.05;;
55288;SDS011;41154;45.394;5.734;2022-12-07T04:51:40;6.78;;;3.38;;
55288;SDS011;41154;45.394;5.734;2022-12-07T04:54:06;7.20;;;3.30;;
55288;SDS011;41154;45.394;5.734;2022-12-07T04:56:32;12.82;;;5.28;;
55288;SDS011;41154;45.394;5.734;2022-12-07T04:59:00;9.38;;;3.78;;
55288;SDS011;41154;45.394;5.734;2022-12-07T05:01:27;8.85;;;4.03;;
55288;SDS011;41154;45.394;5.734;2022-12-07T05:03:53;8.90;;;4.80;;
55288;SDS011;41154;45.394;5.734;2022-12-07T05:06:19;10.50;;;4.35;;
55288;SDS011;41154;45.394;5.734;2022-12-07T05:08:45;5.25;;;3.47;;
55288;SDS011;41154;45.394;5.734;2022-12-07T05:11:11;10.40;;;5.03;;
55288;SDS011;41154;45.394;5.734;2022-12-07T05:13:56;8.55;;;4.63;;
55288;SDS011;41154;45.394;5.734;2022-12-07T05:16:22;10.60;;;5.53;;
55288;SDS011;41154;45.394;5.734;2022-12-07T05:18:48;11.85;;;5.18;;
55288;SDS011;41154;45.394;5.734;2022-12-07T05:21:14;8.93;;;4.88;;
55288;SDS011;41154;45.394;5.734;2022-12-07T05:23:39;5.40;;;4.03;;
55288;SDS011;41154;45.394;5.734;2022-12-07T05:26:05;12.38;;;5.10;;
55288;SDS011;41154;45.394;5.734;2022-12-07T05:28:31;18.67;;;5.30;;
55288;SDS011;41154;45.394;5.734;2022-12-07T05:30:57;6.20;;;3.33;;
55288;SDS011;41154;45.394;5.734;2022-12-07T05:33:22;12.43;;;5.68;;
55288;SDS011;41154;45.394;5.734;2022-12-07T05:35:48;9.38;;;5.05;;
55288;SDS011;41154;45.394;5.734;2022-12-07T05:38:14;6.45;;;3.47;;
55288;SDS011;41154;45.394;5.734;2022-12-07T05:40:39;7.93;;;3.67;;
55288;SDS011;41154;45.394;5.734;2022-12-07T05:43:05;8.40;;;3.58;;
55288;SDS011;41154;45.394;5.734;2022-12-07T05:45:31;12.80;;;5.20;;
55288;SDS011;41154;45.394;5.734;2022-12-07T05:47:57;10.68;;;4.25;;
55288;SDS011;41154;45.394;5.734;2022-12-07T05:50:23;11.95;;;4.28;;
55288;SDS011;41154;45.394;5.734;2022-12-07T05:52:59;8.85;;;4.50;;
55288;SDS011;41154;45.394;5.734;2022-12-07T05:55:26;13.48;;;5.22;;
55288;SDS011;41154;45.394;5.734;2022-12-07T05:57:51;15.90;;;7.38;;
55288;SDS011;41154;45.394;5.734;2022-12-07T06:00:36;12.57;;;5.90;;
55288;SDS011;41154;45.394;5.734;2022-12-07T06:03:01;10.45;;;4.72;;
55288;SDS011;41154;45.394;5.734;2022-12-07T06:05:27;6.90;;;4.25;;
55288;SDS011;41154;45.394;5.734;2022-12-07T06:07:53;9.75;;;4.25;;
55288;SDS011;41154;45.394;5.734;2022-12-07T06:10:18;9.00;;;4.30;;
55288;SDS011;41154;45.394;5.734;2022-12-07T06:12:44;8.10;;;5.22;;
55288;SDS011;41154;45.394;5.734;2022-12-07T06:15:11;10.00;;;4.30;;
55288;SDS011;41154;45.394;5.734;2022-12-07T06:17:38;11.43;;;5.53;;
55288;SDS011;41154;45.394;5.734;2022-12-07T06:20:04;9.35;;;4.93;;
55288;SDS011;41154;45.394;5.734;2022-12-07T06:22:31;14.48;;;6.25;;
55288;SDS011;41154;45.394;5.734;2022-12-07T06:24:56;9.25;;;4.05;;
55288;SDS011;41154;45.394;5.734;2022-12-07T06:27:22;9.45;;;5.25;;
55288;SDS011;41154;45.394;5.734;2022-12-07T06:29:48;7.53;;;4.50;;
55288;SDS011;41154;45.394;5.734;2022-12-07T06:32:13;18.75;;;5.47;;
55288;SDS011;41154;45.394;5.734;2022-12-07T06:34:39;14.65;;;5.78;;
55288;SDS011;41154;45.394;5.734;2022-12-07T06:37:05;13.07;;;5.50;;
55288;SDS011;41154;45.394;5.734;2022-12-07T06:39:31;11.88;;;5.35;;
55288;SDS011;41154;45.394;5.734;2022-12-07T06:41:57;12.45;;;4.40;;
55288;SDS011;41154;45.394;5.734;2022-12-07T06:44:22;12.38;;;6.53;;
55288;SDS011;41154;45.394;5.734;2022-12-07T06:46:49;9.70;;;5.00;;
55288;SDS011;41154;45.394;5.734;2022-12-07T06:49:15;12.27;;;5.20;;
55288;SDS011;41154;45.394;5.734;2022-12-07T06:51:41;12.07;;;5.35;;
55288;SDS011;41154;45.394;5.734;2022-12-07T06:54:08;13.23;;;4.57;;
55288;SDS011;41154;45.394;5.734;2022-12-07T06:56:35;12.27;;;4.55;;
55288;SDS011;41154;45.394;5.734;2022-12-07T06:59:01;11.85;;;5.57;;
55288;SDS011;41154;45.394;5.734;2022-12-07T07:01:27;10.75;;;4.60;;
55288;SDS011;41154;45.394;5.734;2022-12-07T07:03:53;11.88;;;4.75;;
55288;SDS011;41154;45.394;5.734;2022-12-07T07:06:19;12.27;;;4.78;;
55288;SDS011;41154;45.394;5.734;2022-12-07T07:08:45;13.02;;;5.40;;
55288;SDS011;41154;45.394;5.734;2022-12-07T07:11:10;12.23;;;5.68;;
55288;SDS011;41154;45.394;5.734;2022-12-07T07:13:36;6.60;;;3.60;;
55288;SDS011;41154;45.394;5.734;2022-12-07T07:16:09;10.75;;;4.63;;
55288;SDS011;41154;45.394;5.734;2022-12-07T07:18:36;18.90;;;5.05;;
55288;SDS011;41154;45.394;5.734;2022-12-07T07:21:02;15.93;;;5.03;;
55288;SDS011;41154;45.394;5.734;2022-12-07T07:23:28;11.13;;;5.10;;
55288;SDS011;41154;45.394;5.734;2022-12-07T07:25:54;13.02;;;6.18;;
55288;SDS011;41154;45.394;5.734;2022-12-07T07:28:20;14.20;;;5.25;;
55288;SDS011;41154;45.394;5.734;2022-12-07T07:30:47;12.10;;;4.13;;
55288;SDS011;41154;45.394;5.734;2022-12-07T07:33:13;11.55;;;5.43;;
55288;SDS011;41154;45.394;5.734;2022-12-07T07:35:39;14.13;;;4.82;;
55288;SDS011;41154;45.394;5.734;2022-12-07T07:38:05;9.20;;;3.50;;
55288;SDS011;41154;45.394;5.734;2022-12-07T07:40:31;10.48;;;4.82;;
55288;SDS011;41154;45.394;5.734;2022-12-07T07:42:57;15.70;;;4.72;;
55288;SDS011;41154;45.394;5.734;2022-12-07T07:45:23;8.90;;;4.47;;
55288;SDS011;41154;45.394;5.734;2022-12-07T07:47:51;11.23;;;4.72;;
55288;SDS011;41154;45.394;5.734;2022-12-07T07:50:17;7.43;;;4.80;;
55288;SDS011;41154;45.394;5.734;2022-12-07T07:52:44;10.10;;;4.15;;
55288;SDS011;41154;45.394;5.734;2022-12-07T07:55:10;12.00;;;4.55;;
55288;SDS011;41154;45.394;5.734;2022-12-07T07:57:37;11.15;;;5.95;;
55288;SDS011;41154;45.394;5.734;2022-12-07T08:00:05;13.95;;;5.35;;
55288;SDS011;41154;45.394;5.734;2022-12-07T08:02:37;10.32;;;5.30;;
55288;SDS011;41154;45.394;5.734;2022-12-07T08:05:03;11.85;;;4.90;;
55288;SDS011;41154;45.394;5.734;2022-12-07T08:07:30;9.70;;;4.82;;
55288;SDS011;41154;45.394;5.734;2022-12-07T08:09:56;13.52;;;6.03;;
55288;SDS011;41154;45.394;5.734;2022-12-07T08:12:22;13.43;;;5.00;;
55288;SDS011;41154;45.394;5.734;2022-12-07T08:14:48;13.10;;;5.15;;
55288;SDS011;41154;45.394;5.734;2022-12-07T08:17:13;12.68;;;5.15;;
55288;SDS011;41154;45.394;5.734;2022-12-07T08:19:39;10.73;;;5.45;;
55288;SDS011;41154;45.394;5.734;2022-12-07T08:22:05;7.53;;;3.72;;
55288;SDS011;41154;45.394;5.734;2022-12-07T08:24:35;8.68;;;4.82;;
55288;SDS011;41154;45.394;5.734;2022-12-07T08:27:01;8.15;;;4.75;;
55288;SDS011;41154;45.394;5.734;2022-12-07T08:29:27;15.15;;;5.50;;
55288;SDS011;41154;45.394;5.734;2022-12-07T08:31:53;12.35;;;5.75;;
55288;SDS011;41154;45.394;5.734;2022-12-07T08:34:19;12.40;;;5.30;;
55288;SDS011;41154;45.394;5.734;2022-12-07T08:36:44;13.25;;;4.88;;
55288;SDS011;41154;45.394;5.734;2022-12-07T08:39:10;13.40;;;6.00;;
55288;SDS011;41154;45.394;5.734;2022-12-07T08:41:39;14.70;;;6.35;;
55288;SDS011;41154;45.394;5.734;2022-12-07T08:44:05;14.25;;;5.10;;
55288;SDS011;41154;45.394;5.734;2022-12-07T08:46:33;11.82;;;5.30;;
55288;SDS011;41154;45.394;5.734;2022-12-07T08:49:16;16.05;;;5.63;;
55288;SDS011;41154;45.394;5.734;2022-12-07T08:51:48;11.32;;;5.15;;
55288;SDS011;41154;45.394;5.734;2022-12-07T09:05:10;15.10;;;5.55;;
55288;SDS011;41154;45.394;5.734;2022-12-07T09:07:36;19.42;;;7.70;;
55288;SDS011;41154;45.394;5.734;2022-12-07T09:10:03;23.27;;;7.97;;
55288;SDS011;41154;45.394;5.734;2022-12-07T09:12:30;13.02;;;6.07;;
55288;SDS011;41154;45.394;5.734;2022-12-07T09:14:56;16.92;;;7.65;;
55288;SDS011;41154;45.394;5.734;2022-12-07T09:17:22;17.80;;;6.78;;
55288;SDS011;41154;45.394;5.734;2022-12-07T09:19:48;11.00;;;6.30;;
55288;SDS011;41154;45.394;5.734;2022-12-07T09:22:13;16.83;;;7.30;;
55288;SDS011;41154;45.394;5.734;2022-12-07T09:24:39;22.63;;;8.13;;
55288;SDS011;41154;45.394;5.734;2022-12-07T09:27:05;14.10;;;6.57;;
55288;SDS011;41154;45.394;5.734;2022-12-07T09:29:31;15.93;;;6.22;;
55288;SDS011;41154;45.394;5.734;2022-12-07T09:31:56;15.20;;;7.13;;
55288;SDS011;41154;45.394;5.734;2022-12-07T09:34:22;24.45;;;8.73;;
55288;SDS011;41154;45.394;5.734;2022-12-07T09:36:48;20.70;;;7.80;;
55288;SDS011;41154;45.394;5.734;2022-12-07T09:39:14;18.38;;;7.53;;
55288;SDS011;41154;45.394;5.734;2022-12-07T09:41:42;15.40;;;6.43;;
55288;SDS011;41154;45.394;5.734;2022-12-07T09:44:10;15.32;;;6.20;;
55288;SDS011;41154;45.394;5.734;2022-12-07T09:46:40;18.20;;;5.95;;
55288;SDS011;41154;45.394;5.734;2022-12-07T09:49:18;21.90;;;6.43;;
55288;SDS011;41154;45.394;5.734;2022-12-07T09:51:46;18.25;;;6.93;;
55288;SDS011;41154;45.394;5.734;2022-12-07T09:54:14;15.60;;;6.82;;
55288;SDS011;41154;45.394;5.734;2022-12-07T09:56:42;17.50;;;6.60;;
55288;SDS011;41154;45.394;5.734;2022-12-07T09:59:12;30.50;;;12.65;;
55288;SDS011;41154;45.394;5.734;2022-12-07T10:01:42;20.20;;;8.32;;
55288;SDS011;41154;45.394;5.734;2022-12-07T10:04:12;11.38;;;6.20;;
55288;SDS011;41154;45.394;5.734;2022-12-07T10:06:42;19.17;;;8.88;;
55288;SDS011;41154;45.394;5.734;2022-12-07T10:09:18;21.83;;;7.95;;
55288;SDS011;41154;45.394;5.734;2022-12-07T10:12:02;17.38;;;6.50;;
55288;SDS011;41154;45.394;5.734;2022-12-07T10:14:35;16.10;;;6.82;;
55288;SDS011;41154;45.394;5.734;2022-12-07T10:17:17;18.40;;;7.57;;
55288;SDS011;41154;45.394;5.734;2022-12-07T10:20:14;16.13;;;6.18;;
55288;SDS011;41154;45.394;5.734;2022-12-07T10:22:59;12.25;;;6.97;;
55288;SDS011;41154;45.394;5.734;2022-12-07T10:25:32;8.32;;;4.40;;
55288;SDS011;41154;45.394;5.734;2022-12-07T10:35:58;13.50;;;6.00;;
55288;SDS011;41154;45.394;5.734;2022-12-07T10:38:26;13.93;;;5.93;;
55288;SDS011;41154;45.394;5.734;2022-12-07T10:41:03;16.42;;;6.20;;
55288;SDS011;41154;45.394;5.734;2022-12-07T10:43:30;14.65;;;6.38;;
55288;SDS011;41154;45.394;5.734;2022-12-07T10:57:32;12.90;;;4.78;;
55288;SDS011;41154;45.394;5.734;2022-12-07T11:00:20;13.52;;;6.15;;
55288;SDS011;41154;45.394;5.734;2022-12-07T11:05:45;42.50;;;15.77;;
55288;SDS011;41154;45.394;5.734;2022-12-07T11:11:33;15.48;;;7.25;;
55288;SDS011;41154;45.394;5.734;2022-12-07T11:16:33;11.73;;;5.40;;
55288;SDS011;41154;45.394;5.734;2022-12-07T11:19:33;18.52;;;7.60;;
55288;SDS011;41154;45.394;5.734;2022-12-07T11:22:25;12.32;;;4.82;;
55288;SDS011;41154;45.394;5.734;2022-12-07T11:25:45;17.50;;;5.63;;
55288;SDS011;41154;45.394;5.734;2022-12-07T11:31:14;13.20;;;6.35;;
55288;SDS011;41154;45.394;5.734;2022-12-07T11:33:53;18.17;;;5.95;;
55288;SDS011;41154;45.394;5.734;2022-12-07T11:36:37;20.80;;;9.48;;
55288;SDS011;41154;45.394;5.734;2022-12-07T11:39:43;10.77;;;5.32;;
55288;SDS011;41154;45.394;5.734;2022-12-07T11:42:16;14.65;;;5.47;;
55288;SDS011;41154;45.394;5.734;2022-12-07T11:52:54;8.25;;;3.60;;
55288;SDS011;41154;45.394;5.734;2022-12-07T11:55:30;10.68;;;5.55;;
55288;SDS011;41154;45.394;5.734;2022-12-07T12:06:56;13.95;;;6.65;;
55288;SDS011;41154;45.394;5.734;2022-12-07T12:09:24;10.68;;;5.00;;
55288;SDS011;41154;45.394;5.734;2022-12-07T12:17:46;9.75;;;3.95;;
55288;SDS011;41154;45.394;5.734;2022-12-07T12:20:43;11.82;;;5.18;;
55288;SDS011;41154;45.394;5.734;2022-12-07T12:25:52;8.85;;;3.83;;
55288;SDS011;41154;45.394;5.734;2022-12-07T12:31:16;9.73;;;3.83;;
55288;SDS011;41154;45.394;5.734;2022-12-07T12:33:56;10.73;;;4.43;;
55288;SDS011;41154;45.394;5.734;2022-12-07T12:46:59;14.07;;;4.93;;
55288;SDS011;41154;45.394;5.734;2022-12-07T12:59:42;11.95;;;4.80;;
55288;SDS011;41154;45.394;5.734;2022-12-07T13:04:58;7.70;;;4.50;;
55288;SDS011;41154;45.394;5.734;2022-12-07T13:28:54;12.48;;;5.53;;
55288;SDS011;41154;45.394;5.734;2022-12-07T13:31:36;11.45;;;5.50;;
55288;SDS011;41154;45.394;5.734;2022-12-07T13:34:27;9.55;;;5.03;;
55288;SDS011;41154;45.394;5.734;2022-12-07T13:36:54;10.13;;;5.22;;
55288;SDS011;41154;45.394;5.734;2022-12-07T13:39:21;12.02;;;5.47;;
55288;SDS011;41154;45.394;5.734;2022-12-07T13:41:57;8.98;;;4.78;;
55288;SDS011;41154;45.394;5.734;2022-12-07T13:44:26;15.87;;;5.70;;
55288;SDS011;41154;45.394;5.734;2022-12-07T13:49:30;8.93;;;4.72;;
55288;SDS011;41154;45.394;5.734;2022-12-07T13:54:54;9.43;;;5.03;;
55288;SDS011;41154;45.394;5.734;2022-12-07T13:57:22;8.50;;;4.72;;
55288;SDS011;41154;45.394;5.734;2022-12-07T13:59:50;11.90;;;5.10;;
55288;SDS011;41154;45.394;5.734;2022-12-07T14:02:27;12.90;;;5.35;;
55288;SDS011;41154;45.394;5.734;2022-12-07T14:07:53;8.02;;;4.28;;
55288;SDS011;41154;45.394;5.734;2022-12-07T14:12:54;11.15;;;5.15;;
55288;SDS011;41154;45.394;5.734;2022-12-07T14:15:21;14.20;;;6.40;;
55288;SDS011;41154;45.394;5.734;2022-12-07T14:17:50;12.13;;;5.13;;
55288;SDS011;41154;45.394;5.734;2022-12-07T14:23:27;11.93;;;5.75;;
55288;SDS011;41154;45.394;5.734;2022-12-07T14:25:53;9.75;;;5.22;;
55288;SDS011;41154;45.394;5.734;2022-12-07T14:28:26;11.25;;;5.35;;
55288;SDS011;41154;45.394;5.734;2022-12-07T14:30:53;14.02;;;6.20;;
55288;SDS011;41154;45.394;5.734;2022-12-07T14:33:19;12.95;;;5.70;;
55288;SDS011;41154;45.394;5.734;2022-12-07T14:35:46;13.85;;;5.50;;
55288;SDS011;41154;45.394;5.734;2022-12-07T14:38:12;13.10;;;5.75;;
55288;SDS011;41154;45.394;5.734;2022-12-07T14:40:38;10.23;;;6.07;;
55288;SDS011;41154;45.394;5.734;2022-12-07T14:43:05;13.95;;;6.50;;
55288;SDS011;41154;45.394;5.734;2022-12-07T14:45:34;9.18;;;5.15;;
55288;SDS011;41154;45.394;5.734;2022-12-07T14:47:59;14.95;;;5.93;;
55288;SDS011;41154;45.394;5.734;2022-12-07T14:50:25;9.82;;;5.72;;
55288;SDS011;41154;45.394;5.734;2022-12-07T14:52:55;14.20;;;7.05;;
55288;SDS011;41154;45.394;5.734;2022-12-07T14:55:28;17.85;;;6.95;;
55288;SDS011;41154;45.394;5.734;2022-12-07T14:57:56;10.23;;;5.25;;
55288;SDS011;41154;45.394;5.734;2022-12-07T15:00:26;19.30;;;7.80;;
55288;SDS011;41154;45.394;5.734;2022-12-07T15:02:54;13.85;;;6.80;;
55288;SDS011;41154;45.394;5.734;2022-12-07T15:05:20;14.38;;;6.65;;
55288;SDS011;41154;45.394;5.734;2022-12-07T15:07:46;16.00;;;6.15;;
55288;SDS011;41154;45.394;5.734;2022-12-07T15:10:17;12.45;;;6.57;;
55288;SDS011;41154;45.394;5.734;2022-12-07T15:12:55;16.95;;;6.85;;
55288;SDS011;41154;45.394;5.734;2022-12-07T15:15:45;15.30;;;7.43;;
55288;SDS011;41154;45.394;5.734;2022-12-07T15:18:11;13.27;;;5.90;;
55288;SDS011;41154;45.394;5.734;2022-12-07T15:20:37;17.08;;;5.78;;
55288;SDS011;41154;45.394;5.734;2022-12-07T15:23:03;14.50;;;6.22;;
55288;SDS011;41154;45.394;5.734;2022-12-07T15:25:29;16.90;;;6.13;;
55288;SDS011;41154;45.394;5.734;2022-12-07T15:27:54;14.80;;;6.38;;
55288;SDS011;41154;45.394;5.734;2022-12-07T15:30:20;18.83;;;6.88;;
55288;SDS011;41154;45.394;5.734;2022-12-07T15:32:49;11.90;;;6.57;;
55288;SDS011;41154;45.394;5.734;2022-12-07T15:35:15;14.55;;;6.30;;
55288;SDS011;41154;45.394;5.734;2022-12-07T15:37:41;13.70;;;6.82;;
55288;SDS011;41154;45.394;5.734;2022-12-07T15:40:07;12.95;;;5.85;;
55288;SDS011;41154;45.394;5.734;2022-12-07T15:42:37;11.32;;;6.43;;
55288;SDS011;41154;45.394;5.734;2022-12-07T15:45:03;18.40;;;7.03;;
55288;SDS011;41154;45.394;5.734;2022-12-07T15:47:35;16.63;;;6.85;;
55288;SDS011;41154;45.394;5.734;2022-12-07T15:50:06;14.30;;;7.18;;
55288;SDS011;41154;45.394;5.734;2022-12-07T15:52:37;20.80;;;9.23;;
55288;SDS011;41154;45.394;5.734;2022-12-07T15:55:03;13.05;;;6.63;;
55288;SDS011;41154;45.394;5.734;2022-12-07T15:57:32;13.90;;;7.07;;
55288;SDS011;41154;45.394;5.734;2022-12-07T16:00:00;12.43;;;6.38;;
55288;SDS011;41154;45.394;5.734;2022-12-07T16:02:26;16.42;;;7.55;;
55288;SDS011;41154;45.394;5.734;2022-12-07T16:04:51;20.63;;;8.48;;
55288;SDS011;41154;45.394;5.734;2022-12-07T16:07:18;14.77;;;6.60;;
55288;SDS011;41154;45.394;5.734;2022-12-07T16:09:44;18.42;;;8.05;;
55288;SDS011;41154;45.394;5.734;2022-12-07T16:12:11;16.95;;;7.68;;
55288;SDS011;41154;45.394;5.734;2022-12-07T16:14:38;20.85;;;8.38;;
55288;SDS011;41154;45.394;5.734;2022-12-07T16:17:05;14.73;;;7.43;;
55288;SDS011;41154;45.394;5.734;2022-12-07T16:19:31;15.50;;;5.75;;
55288;SDS011;41154;45.394;5.734;2022-12-07T16:21:58;14.15;;;6.65;;
55288;SDS011;41154;45.394;5.734;2022-12-07T16:24:24;14.77;;;7.18;;
55288;SDS011;41154;45.394;5.734;2022-12-07T16:26:50;18.25;;;7.97;;
55288;SDS011;41154;45.394;5.734;2022-12-07T16:29:18;19.00;;;7.35;;
55288;SDS011;41154;45.394;5.734;2022-12-07T16:31:46;14.52;;;5.95;;
55288;SDS011;41154;45.394;5.734;2022-12-07T16:34:13;12.95;;;6.72;;
55288;SDS011;41154;45.394;5.734;2022-12-07T16:36:38;14.30;;;6.70;;
55288;SDS011;41154;45.394;5.734;2022-12-07T16:39:04;18.77;;;7.13;;
55288;SDS011;41154;45.394;5.734;2022-12-07T16:41:31;17.60;;;7.15;;
55288;SDS011;41154;45.394;5.734;2022-12-07T16:43:59;16.63;;;8.25;;
55288;SDS011;41154;45.394;5.734;2022-12-07T16:46:28;18.23;;;7.78;;
55288;SDS011;41154;45.394;5.734;2022-12-07T16:48:54;15.73;;;7.82;;
55288;SDS011;41154;45.394;5.734;2022-12-07T16:51:20;18.27;;;7.72;;
55288;SDS011;41154;45.394;5.734;2022-12-07T16:53:46;17.27;;;7.35;;
55288;SDS011;41154;45.394;5.734;2022-12-07T16:56:12;17.02;;;7.70;;
55288;SDS011;41154;45.394;5.734;2022-12-07T16:58:41;19.75;;;7.78;;
55288;SDS011;41154;45.394;5.734;2022-12-07T17:01:12;12.95;;;6.30;;
55288;SDS011;41154;45.394;5.734;2022-12-07T17:03:39;13.60;;;6.13;;
55288;SDS011;41154;45.394;5.734;2022-12-07T17:06:21;17.25;;;6.85;;
55288;SDS011;41154;45.394;5.734;2022-12-07T17:08:49;21.02;;;7.78;;
55288;SDS011;41154;45.394;5.734;2022-12-07T17:11:17;18.48;;;8.07;;
55288;SDS011;41154;45.394;5.734;2022-12-07T17:13:43;12.90;;;6.93;;
55288;SDS011;41154;45.394;5.734;2022-12-07T17:16:27;14.93;;;7.75;;
55288;SDS011;41154;45.394;5.734;2022-12-07T17:18:54;16.67;;;6.43;;
55288;SDS011;41154;45.394;5.734;2022-12-07T17:21:20;13.00;;;6.97;;
55288;SDS011;41154;45.394;5.734;2022-12-07T17:23:46;17.30;;;7.28;;
55288;SDS011;41154;45.394;5.734;2022-12-07T17:26:16;13.38;;;6.07;;
55288;SDS011;41154;45.394;5.734;2022-12-07T17:28:45;15.88;;;7.22;;
55288;SDS011;41154;45.394;5.734;2022-12-07T17:31:12;16.33;;;7.43;;
55288;SDS011;41154;45.394;5.734;2022-12-07T17:33:39;18.63;;;7.28;;
55288;SDS011;41154;45.394;5.734;2022-12-07T17:36:11;18.83;;;7.70;;
55288;SDS011;41154;45.394;5.734;2022-12-07T17:38:39;19.08;;;6.72;;
55288;SDS011;41154;45.394;5.734;2022-12-07T17:41:12;14.85;;;7.55;;